sensor_id;sensor_type;location;lat;lon;timestamp;P1;durP1;ratioP1;P2;durP2;ratioP2
52512;SDS011;38422;53.172;6.974;2022-10-31T00:02:06;14.27;;;8.02;;
52512;SDS011;38422;53.172;6.974;2022-10-31T00:04:32;15.23;;;8.27;;
52512;SDS011;38422;53.172;6.974;2022-10-31T00:06:57;14.82;;;8.13;;
52512;SDS011;38422;53.172;6.974;2022-10-31T00:09:23;14.50;;;8.40;;
52512;SDS011;38422;53.172;6.974;2022-10-31T00:11:49;13.52;;;8.05;;
52512;SDS011;38422;53.172;6.974;2022-10-31T00:14:14;16.15;;;8.85;;
52512;SDS011;38422;53.172;6.974;2022-10-31T00:16:40;14.45;;;8.48;;
52512;SDS011;38422;53.172;6.974;2022-10-31T00:19:06;15.35;;;8.85;;
52512;SDS011;38422;53.172;6.974;2022-10-31T00:21:33;16.07;;;9.43;;
52512;SDS011;38422;53.172;6.974;2022-10-31T00:23:59;14.88;;;8.85;;
52512;SDS011;38422;53.172;6.974;2022-10-31T00:26:26;16.85;;;9.05;;
52512;SDS011;38422;53.172;6.974;2022-10-31T00:28:52;14.80;;;8.48;;
52512;SDS011;38422;53.172;6.974;2022-10-31T00:31:18;17.20;;;9.35;;
52512;SDS011;38422;53.172;6.974;2022-10-31T00:33:44;16.15;;;9.10;;
52512;SDS011;38422;53.172;6.974;2022-10-31T00:36:13;17.33;;;9.98;;
52512;SDS011;38422;53.172;6.974;2022-10-31T00:38:42;15.40;;;9.15;;
52512;SDS011;38422;53.172;6.974;2022-10-31T00:41:08;16.35;;;9.10;;
52512;SDS011;38422;53.172;6.974;2022-10-31T00:43:34;12.48;;;8.48;;
52512;SDS011;38422;53.172;6.974;2022-10-31T00:46:00;15.68;;;8.98;;
52512;SDS011;38422;53.172;6.974;2022-10-31T00:48:25;15.55;;;9.30;;
52512;SDS011;38422;53.172;6.974;2022-10-31T00:50:51;13.88;;;8.57;;
52512;SDS011;38422;53.172;6.974;2022-10-31T00:53:17;14.80;;;8.32;;
52512;SDS011;38422;53.172;6.974;2022-10-31T00:55:43;15.15;;;8.73;;
52512;SDS011;38422;53.172;6.974;2022-10-31T00:58:08;15.65;;;8.90;;
52512;SDS011;38422;53.172;6.974;2022-10-31T01:00:34;15.63;;;8.70;;
52512;SDS011;38422;53.172;6.974;2022-10-31T01:03:00;16.00;;;8.93;;
52512;SDS011;38422;53.172;6.974;2022-10-31T01:05:25;16.13;;;9.02;;
52512;SDS011;38422;53.172;6.974;2022-10-31T01:07:51;15.32;;;8.23;;
52512;SDS011;38422;53.172;6.974;2022-10-31T01:10:17;14.52;;;8.95;;
52512;SDS011;38422;53.172;6.974;2022-10-31T01:12:44;13.60;;;9.32;;
52512;SDS011;38422;53.172;6.974;2022-10-31T01:15:11;15.93;;;8.35;;
52512;SDS011;38422;53.172;6.974;2022-10-31T01:17:38;14.45;;;8.60;;
52512;SDS011;38422;53.172;6.974;2022-10-31T01:20:05;11.60;;;8.43;;
52512;SDS011;38422;53.172;6.974;2022-10-31T01:24:58;16.77;;;9.25;;
52512;SDS011;38422;53.172;6.974;2022-10-31T01:27:23;14.38;;;8.98;;
52512;SDS011;38422;53.172;6.974;2022-10-31T01:29:49;13.18;;;8.43;;
52512;SDS011;38422;53.172;6.974;2022-10-31T01:32:15;13.02;;;8.65;;
52512;SDS011;38422;53.172;6.974;2022-10-31T01:34:40;17.45;;;9.18;;
52512;SDS011;38422;53.172;6.974;2022-10-31T01:37:06;13.55;;;8.70;;
52512;SDS011;38422;53.172;6.974;2022-10-31T01:39:32;13.00;;;8.38;;
52512;SDS011;38422;53.172;6.974;2022-10-31T01:41:57;14.98;;;9.13;;
52512;SDS011;38422;53.172;6.974;2022-10-31T01:54:48;16.45;;;8.77;;
52512;SDS011;38422;53.172;6.974;2022-10-31T01:57:32;13.65;;;8.88;;
52512;SDS011;38422;53.172;6.974;2022-10-31T02:00:01;14.68;;;8.90;;
52512;SDS011;38422;53.172;6.974;2022-10-31T02:02:29;14.35;;;8.85;;
52512;SDS011;38422;53.172;6.974;2022-10-31T02:04:55;13.68;;;9.25;;
52512;SDS011;38422;53.172;6.974;2022-10-31T02:07:30;14.85;;;9.02;;
52512;SDS011;38422;53.172;6.974;2022-10-31T02:10:03;12.35;;;8.23;;
52512;SDS011;38422;53.172;6.974;2022-10-31T02:12:29;12.38;;;7.68;;
52512;SDS011;38422;53.172;6.974;2022-10-31T02:14:58;15.10;;;8.43;;
52512;SDS011;38422;53.172;6.974;2022-10-31T02:20:02;14.70;;;9.20;;
52512;SDS011;38422;53.172;6.974;2022-10-31T02:22:52;14.23;;;8.98;;
52512;SDS011;38422;53.172;6.974;2022-10-31T02:33:55;13.43;;;8.63;;
52512;SDS011;38422;53.172;6.974;2022-10-31T02:36:27;14.57;;;8.20;;
52512;SDS011;38422;53.172;6.974;2022-10-31T02:44:15;11.68;;;8.30;;
52512;SDS011;38422;53.172;6.974;2022-10-31T02:49:34;13.70;;;8.43;;
52512;SDS011;38422;53.172;6.974;2022-10-31T02:52:24;10.93;;;8.07;;
52512;SDS011;38422;53.172;6.974;2022-10-31T02:54:51;13.05;;;8.80;;
52512;SDS011;38422;53.172;6.974;2022-10-31T02:57:19;12.25;;;8.07;;
52512;SDS011;38422;53.172;6.974;2022-10-31T02:59:49;13.77;;;8.10;;
52512;SDS011;38422;53.172;6.974;2022-10-31T03:02:28;12.90;;;8.23;;
52512;SDS011;38422;53.172;6.974;2022-10-31T03:05:18;10.15;;;7.13;;
52512;SDS011;38422;53.172;6.974;2022-10-31T03:07:57;12.30;;;8.05;;
52512;SDS011;38422;53.172;6.974;2022-10-31T03:10:35;20.20;;;9.23;;
52512;SDS011;38422;53.172;6.974;2022-10-31T03:15:56;12.57;;;8.07;;
52512;SDS011;38422;53.172;6.974;2022-10-31T03:18:34;12.20;;;7.75;;
52512;SDS011;38422;53.172;6.974;2022-10-31T03:24:11;15.15;;;8.65;;
52512;SDS011;38422;53.172;6.974;2022-10-31T03:26:40;13.85;;;8.18;;
52512;SDS011;38422;53.172;6.974;2022-10-31T03:29:13;14.82;;;8.38;;
52512;SDS011;38422;53.172;6.974;2022-10-31T03:31:47;16.50;;;9.15;;
52512;SDS011;38422;53.172;6.974;2022-10-31T03:34:20;12.95;;;8.13;;
52512;SDS011;38422;53.172;6.974;2022-10-31T03:36:51;13.40;;;8.20;;
52512;SDS011;38422;53.172;6.974;2022-10-31T03:39:20;16.52;;;8.68;;
52512;SDS011;38422;53.172;6.974;2022-10-31T03:42:02;14.93;;;9.43;;
52512;SDS011;38422;53.172;6.974;2022-10-31T03:44:41;14.52;;;8.95;;
52512;SDS011;38422;53.172;6.974;2022-10-31T03:47:11;12.98;;;8.50;;
52512;SDS011;38422;53.172;6.974;2022-10-31T03:49:38;12.18;;;8.73;;
52512;SDS011;38422;53.172;6.974;2022-10-31T03:54:55;14.43;;;9.05;;
52512;SDS011;38422;53.172;6.974;2022-10-31T03:58:08;14.48;;;9.30;;
52512;SDS011;38422;53.172;6.974;2022-10-31T04:00:17;15.27;;;9.68;;
52512;SDS011;38422;53.172;6.974;2022-10-31T04:02:49;12.15;;;9.15;;
52512;SDS011;38422;53.172;6.974;2022-10-31T04:05:20;12.80;;;8.65;;
52512;SDS011;38422;53.172;6.974;2022-10-31T04:07:49;14.05;;;9.40;;
52512;SDS011;38422;53.172;6.974;2022-10-31T04:10:18;13.43;;;8.85;;
52512;SDS011;38422;53.172;6.974;2022-10-31T04:12:47;15.55;;;9.80;;
52512;SDS011;38422;53.172;6.974;2022-10-31T04:15:16;12.52;;;9.45;;
52512;SDS011;38422;53.172;6.974;2022-10-31T04:20:10;15.25;;;9.77;;
52512;SDS011;38422;53.172;6.974;2022-10-31T04:22:36;15.15;;;9.95;;
52512;SDS011;38422;53.172;6.974;2022-10-31T04:25:01;17.52;;;10.50;;
52512;SDS011;38422;53.172;6.974;2022-10-31T04:27:27;13.18;;;8.85;;
52512;SDS011;38422;53.172;6.974;2022-10-31T04:29:53;13.90;;;9.32;;
52512;SDS011;38422;53.172;6.974;2022-10-31T04:32:18;13.95;;;9.32;;
52512;SDS011;38422;53.172;6.974;2022-10-31T04:34:44;13.23;;;9.38;;
52512;SDS011;38422;53.172;6.974;2022-10-31T04:37:10;13.75;;;8.98;;
52512;SDS011;38422;53.172;6.974;2022-10-31T04:39:35;14.30;;;9.80;;
52512;SDS011;38422;53.172;6.974;2022-10-31T04:42:01;14.13;;;9.98;;
52512;SDS011;38422;53.172;6.974;2022-10-31T04:44:27;12.75;;;9.77;;
52512;SDS011;38422;53.172;6.974;2022-10-31T04:46:52;17.65;;;10.60;;
52512;SDS011;38422;53.172;6.974;2022-10-31T04:49:18;15.10;;;10.90;;
52512;SDS011;38422;53.172;6.974;2022-10-31T04:51:43;14.52;;;10.82;;
52512;SDS011;38422;53.172;6.974;2022-10-31T04:54:09;16.45;;;9.52;;
52512;SDS011;38422;53.172;6.974;2022-10-31T04:56:35;15.98;;;10.82;;
52512;SDS011;38422;53.172;6.974;2022-10-31T04:59:00;14.30;;;9.77;;
52512;SDS011;38422;53.172;6.974;2022-10-31T05:01:26;15.55;;;9.98;;
52512;SDS011;38422;53.172;6.974;2022-10-31T05:03:52;16.65;;;11.60;;
52512;SDS011;38422;53.172;6.974;2022-10-31T05:06:18;17.13;;;10.55;;
52512;SDS011;38422;53.172;6.974;2022-10-31T05:08:44;17.05;;;11.80;;
52512;SDS011;38422;53.172;6.974;2022-10-31T05:11:09;15.27;;;11.10;;
52512;SDS011;38422;53.172;6.974;2022-10-31T05:13:36;17.23;;;11.00;;
52512;SDS011;38422;53.172;6.974;2022-10-31T05:16:01;13.88;;;10.45;;
52512;SDS011;38422;53.172;6.974;2022-10-31T05:18:28;14.63;;;10.70;;
52512;SDS011;38422;53.172;6.974;2022-10-31T05:20:53;14.77;;;11.10;;
52512;SDS011;38422;53.172;6.974;2022-10-31T05:23:19;15.55;;;10.73;;
52512;SDS011;38422;53.172;6.974;2022-10-31T05:25:45;16.15;;;11.07;;
52512;SDS011;38422;53.172;6.974;2022-10-31T05:28:10;16.08;;;11.23;;
52512;SDS011;38422;53.172;6.974;2022-10-31T05:30:36;17.80;;;11.15;;
52512;SDS011;38422;53.172;6.974;2022-10-31T05:33:02;14.98;;;10.52;;
52512;SDS011;38422;53.172;6.974;2022-10-31T05:35:28;14.77;;;10.95;;
52512;SDS011;38422;53.172;6.974;2022-10-31T05:37:56;15.40;;;10.82;;
52512;SDS011;38422;53.172;6.974;2022-10-31T05:40:22;17.77;;;11.77;;
52512;SDS011;38422;53.172;6.974;2022-10-31T05:42:53;17.20;;;11.73;;
52512;SDS011;38422;53.172;6.974;2022-10-31T05:45:20;16.35;;;11.25;;
52512;SDS011;38422;53.172;6.974;2022-10-31T05:47:53;20.80;;;11.95;;
52512;SDS011;38422;53.172;6.974;2022-10-31T05:50:21;18.83;;;11.45;;
52512;SDS011;38422;53.172;6.974;2022-10-31T05:52:47;17.25;;;11.50;;
52512;SDS011;38422;53.172;6.974;2022-10-31T05:55:19;15.75;;;11.73;;
52512;SDS011;38422;53.172;6.974;2022-10-31T05:57:44;18.95;;;11.95;;
52512;SDS011;38422;53.172;6.974;2022-10-31T06:00:10;15.65;;;11.75;;
52512;SDS011;38422;53.172;6.974;2022-10-31T06:02:36;14.45;;;11.50;;
52512;SDS011;38422;53.172;6.974;2022-10-31T06:05:02;14.90;;;11.40;;
52512;SDS011;38422;53.172;6.974;2022-10-31T06:07:31;16.20;;;11.68;;
52512;SDS011;38422;53.172;6.974;2022-10-31T06:09:59;17.40;;;11.60;;
52512;SDS011;38422;53.172;6.974;2022-10-31T06:12:24;16.55;;;11.18;;
52512;SDS011;38422;53.172;6.974;2022-10-31T06:14:50;13.70;;;10.20;;
52512;SDS011;38422;53.172;6.974;2022-10-31T06:17:16;13.18;;;10.18;;
52512;SDS011;38422;53.172;6.974;2022-10-31T06:19:41;14.02;;;10.52;;
52512;SDS011;38422;53.172;6.974;2022-10-31T06:22:07;15.02;;;10.73;;
52512;SDS011;38422;53.172;6.974;2022-10-31T06:24:33;14.88;;;10.95;;
52512;SDS011;38422;53.172;6.974;2022-10-31T06:26:58;15.50;;;11.55;;
52512;SDS011;38422;53.172;6.974;2022-10-31T06:29:24;15.63;;;10.75;;
52512;SDS011;38422;53.172;6.974;2022-10-31T06:31:53;14.93;;;10.63;;
52512;SDS011;38422;53.172;6.974;2022-10-31T06:34:18;15.40;;;11.07;;
52512;SDS011;38422;53.172;6.974;2022-10-31T06:36:45;15.10;;;11.63;;
52512;SDS011;38422;53.172;6.974;2022-10-31T06:41:37;17.52;;;11.63;;
52512;SDS011;38422;53.172;6.974;2022-10-31T06:44:05;18.70;;;12.05;;
52512;SDS011;38422;53.172;6.974;2022-10-31T06:46:31;15.57;;;11.02;;
52512;SDS011;38422;53.172;6.974;2022-10-31T06:48:57;18.58;;;11.00;;
52512;SDS011;38422;53.172;6.974;2022-10-31T06:51:22;15.48;;;11.45;;
52512;SDS011;38422;53.172;6.974;2022-10-31T06:53:48;14.30;;;10.82;;
52512;SDS011;38422;53.172;6.974;2022-10-31T06:56:14;14.68;;;11.13;;
52512;SDS011;38422;53.172;6.974;2022-10-31T06:58:40;15.10;;;11.00;;
52512;SDS011;38422;53.172;6.974;2022-10-31T07:01:05;14.50;;;10.80;;
52512;SDS011;38422;53.172;6.974;2022-10-31T07:03:31;16.25;;;10.85;;
52512;SDS011;38422;53.172;6.974;2022-10-31T07:05:57;13.15;;;10.35;;
52512;SDS011;38422;53.172;6.974;2022-10-31T07:08:24;13.73;;;10.52;;
52512;SDS011;38422;53.172;6.974;2022-10-31T07:10:51;15.60;;;11.38;;
52512;SDS011;38422;53.172;6.974;2022-10-31T07:13:18;12.85;;;10.18;;
52512;SDS011;38422;53.172;6.974;2022-10-31T07:15:48;13.80;;;9.90;;
52512;SDS011;38422;53.172;6.974;2022-10-31T07:18:14;16.35;;;10.60;;
52512;SDS011;38422;53.172;6.974;2022-10-31T07:20:39;15.00;;;10.18;;
52512;SDS011;38422;53.172;6.974;2022-10-31T07:23:05;13.98;;;10.35;;
52512;SDS011;38422;53.172;6.974;2022-10-31T07:25:31;14.48;;;10.20;;
52512;SDS011;38422;53.172;6.974;2022-10-31T07:27:57;15.75;;;10.98;;
52512;SDS011;38422;53.172;6.974;2022-10-31T07:30:22;15.75;;;10.63;;
52512;SDS011;38422;53.172;6.974;2022-10-31T07:32:49;12.90;;;9.93;;
52512;SDS011;38422;53.172;6.974;2022-10-31T07:35:16;13.27;;;9.93;;
52512;SDS011;38422;53.172;6.974;2022-10-31T07:37:46;12.90;;;10.50;;
52512;SDS011;38422;53.172;6.974;2022-10-31T07:40:13;14.35;;;10.48;;
52512;SDS011;38422;53.172;6.974;2022-10-31T07:42:40;13.88;;;10.52;;
52512;SDS011;38422;53.172;6.974;2022-10-31T07:45:11;15.95;;;10.98;;
52512;SDS011;38422;53.172;6.974;2022-10-31T07:47:47;14.45;;;10.48;;
52512;SDS011;38422;53.172;6.974;2022-10-31T07:50:18;11.82;;;9.35;;
52512;SDS011;38422;53.172;6.974;2022-10-31T07:52:45;13.07;;;10.15;;
52512;SDS011;38422;53.172;6.974;2022-10-31T07:55:11;18.55;;;11.05;;
52512;SDS011;38422;53.172;6.974;2022-10-31T07:57:37;13.27;;;10.68;;
52512;SDS011;38422;53.172;6.974;2022-10-31T08:00:03;15.57;;;10.57;;
52512;SDS011;38422;53.172;6.974;2022-10-31T08:02:31;14.70;;;10.82;;
52512;SDS011;38422;53.172;6.974;2022-10-31T08:04:56;13.80;;;11.05;;
52512;SDS011;38422;53.172;6.974;2022-10-31T08:07:22;13.15;;;11.10;;
52512;SDS011;38422;53.172;6.974;2022-10-31T08:09:48;13.80;;;11.48;;
52512;SDS011;38422;53.172;6.974;2022-10-31T08:12:13;13.90;;;10.93;;
52512;SDS011;38422;53.172;6.974;2022-10-31T08:14:39;15.73;;;11.45;;
52512;SDS011;38422;53.172;6.974;2022-10-31T08:17:05;14.60;;;11.15;;
52512;SDS011;38422;53.172;6.974;2022-10-31T08:19:30;15.70;;;11.05;;
52512;SDS011;38422;53.172;6.974;2022-10-31T08:21:56;15.95;;;11.15;;
52512;SDS011;38422;53.172;6.974;2022-10-31T08:24:23;15.45;;;11.77;;
52512;SDS011;38422;53.172;6.974;2022-10-31T08:26:49;17.52;;;11.38;;
52512;SDS011;38422;53.172;6.974;2022-10-31T08:29:15;16.50;;;12.55;;
52512;SDS011;38422;53.172;6.974;2022-10-31T08:31:41;16.50;;;11.73;;
52512;SDS011;38422;53.172;6.974;2022-10-31T08:34:07;18.42;;;12.13;;
52512;SDS011;38422;53.172;6.974;2022-10-31T08:36:33;18.10;;;12.45;;
52512;SDS011;38422;53.172;6.974;2022-10-31T08:38:59;15.60;;;11.32;;
52512;SDS011;38422;53.172;6.974;2022-10-31T08:41:25;16.20;;;12.88;;
52512;SDS011;38422;53.172;6.974;2022-10-31T08:43:51;18.77;;;12.57;;
52512;SDS011;38422;53.172;6.974;2022-10-31T08:46:17;14.93;;;11.90;;
52512;SDS011;38422;53.172;6.974;2022-10-31T08:48:42;16.20;;;11.75;;
52512;SDS011;38422;53.172;6.974;2022-10-31T08:51:08;13.48;;;10.48;;
52512;SDS011;38422;53.172;6.974;2022-10-31T08:53:35;13.95;;;11.60;;
52512;SDS011;38422;53.172;6.974;2022-10-31T08:56:01;15.57;;;11.48;;
52512;SDS011;38422;53.172;6.974;2022-10-31T08:58:27;14.73;;;11.05;;
52512;SDS011;38422;53.172;6.974;2022-10-31T09:00:53;15.60;;;11.18;;
52512;SDS011;38422;53.172;6.974;2022-10-31T09:03:25;17.50;;;11.75;;
52512;SDS011;38422;53.172;6.974;2022-10-31T09:05:56;15.27;;;11.07;;
52512;SDS011;38422;53.172;6.974;2022-10-31T09:08:23;14.55;;;10.45;;
52512;SDS011;38422;53.172;6.974;2022-10-31T09:10:49;13.23;;;10.57;;
52512;SDS011;38422;53.172;6.974;2022-10-31T09:13:16;17.35;;;11.90;;
52512;SDS011;38422;53.172;6.974;2022-10-31T09:15:44;14.25;;;10.55;;
52512;SDS011;38422;53.172;6.974;2022-10-31T09:18:12;13.95;;;10.23;;
52512;SDS011;38422;53.172;6.974;2022-10-31T09:20:40;15.20;;;10.70;;
52512;SDS011;38422;53.172;6.974;2022-10-31T09:23:16;13.85;;;10.50;;
52512;SDS011;38422;53.172;6.974;2022-10-31T09:25:43;17.23;;;11.80;;
52512;SDS011;38422;53.172;6.974;2022-10-31T09:28:12;17.15;;;11.25;;
52512;SDS011;38422;53.172;6.974;2022-10-31T09:30:39;13.75;;;10.35;;
52512;SDS011;38422;53.172;6.974;2022-10-31T09:33:06;14.10;;;9.95;;
52512;SDS011;38422;53.172;6.974;2022-10-31T09:35:34;14.70;;;10.75;;
52512;SDS011;38422;53.172;6.974;2022-10-31T09:38:01;12.52;;;10.18;;
52512;SDS011;38422;53.172;6.974;2022-10-31T09:45:51;12.85;;;10.60;;
52512;SDS011;38422;53.172;6.974;2022-10-31T09:48:33;13.63;;;10.05;;
52512;SDS011;38422;53.172;6.974;2022-10-31T09:51:08;13.02;;;9.98;;
52512;SDS011;38422;53.172;6.974;2022-10-31T09:53:51;13.57;;;9.95;;
52512;SDS011;38422;53.172;6.974;2022-10-31T09:56:20;14.65;;;10.77;;
52512;SDS011;38422;53.172;6.974;2022-10-31T09:58:57;14.23;;;10.20;;
52512;SDS011;38422;53.172;6.974;2022-10-31T10:06:47;12.68;;;9.55;;
52512;SDS011;38422;53.172;6.974;2022-10-31T10:09:15;13.02;;;9.32;;
52512;SDS011;38422;53.172;6.974;2022-10-31T10:30:03;14.00;;;7.15;;
52512;SDS011;38422;53.172;6.974;2022-10-31T10:32:57;9.88;;;6.93;;
52512;SDS011;38422;53.172;6.974;2022-10-31T10:35:43;10.35;;;7.30;;
52512;SDS011;38422;53.172;6.974;2022-10-31T10:40:47;11.35;;;6.53;;
52512;SDS011;38422;53.172;6.974;2022-10-31T10:45:59;10.38;;;6.80;;
52512;SDS011;38422;53.172;6.974;2022-10-31T10:51:58;8.82;;;6.13;;
52512;SDS011;38422;53.172;6.974;2022-10-31T10:57:27;12.15;;;6.70;;
52512;SDS011;38422;53.172;6.974;2022-10-31T11:02:56;10.65;;;6.88;;
52512;SDS011;38422;53.172;6.974;2022-10-31T11:07:47;10.13;;;6.93;;
52512;SDS011;38422;53.172;6.974;2022-10-31T11:10:14;10.23;;;7.13;;
52512;SDS011;38422;53.172;6.974;2022-10-31T11:12:41;9.75;;;7.28;;
52512;SDS011;38422;53.172;6.974;2022-10-31T11:15:22;10.48;;;7.25;;
52512;SDS011;38422;53.172;6.974;2022-10-31T11:17:51;10.93;;;7.18;;
52512;SDS011;38422;53.172;6.974;2022-10-31T11:22:45;10.75;;;7.47;;
52512;SDS011;38422;53.172;6.974;2022-10-31T11:27:44;10.38;;;7.60;;
52512;SDS011;38422;53.172;6.974;2022-10-31T11:30:11;9.00;;;6.43;;
52512;SDS011;38422;53.172;6.974;2022-10-31T11:32:40;11.77;;;6.93;;
52512;SDS011;38422;53.172;6.974;2022-10-31T11:35:12;10.80;;;6.85;;
52512;SDS011;38422;53.172;6.974;2022-10-31T11:37:42;10.20;;;7.03;;
52512;SDS011;38422;53.172;6.974;2022-10-31T11:40:17;11.35;;;6.60;;
52512;SDS011;38422;53.172;6.974;2022-10-31T11:42:54;11.07;;;7.10;;
52512;SDS011;38422;53.172;6.974;2022-10-31T11:47:49;12.80;;;6.20;;
52512;SDS011;38422;53.172;6.974;2022-10-31T11:50:20;10.65;;;6.15;;
52512;SDS011;38422;53.172;6.974;2022-10-31T11:52:52;9.77;;;6.00;;
52512;SDS011;38422;53.172;6.974;2022-10-31T11:55:30;9.40;;;6.07;;
52512;SDS011;38422;53.172;6.974;2022-10-31T11:57:56;11.43;;;6.25;;
52512;SDS011;38422;53.172;6.974;2022-10-31T12:00:29;9.98;;;4.60;;
52512;SDS011;38422;53.172;6.974;2022-10-31T12:05:44;7.63;;;4.38;;
52512;SDS011;38422;53.172;6.974;2022-10-31T12:08:12;7.63;;;4.03;;
52512;SDS011;38422;53.172;6.974;2022-10-31T12:10:46;8.27;;;4.20;;
52512;SDS011;38422;53.172;6.974;2022-10-31T12:13:34;8.30;;;4.85;;
52512;SDS011;38422;53.172;6.974;2022-10-31T12:16:12;9.18;;;4.65;;
52512;SDS011;38422;53.172;6.974;2022-10-31T12:18:51;8.93;;;5.07;;
52512;SDS011;38422;53.172;6.974;2022-10-31T12:24:13;8.80;;;4.32;;
52512;SDS011;38422;53.172;6.974;2022-10-31T12:43:12;8.57;;;4.82;;
52512;SDS011;38422;53.172;6.974;2022-10-31T12:45:57;9.63;;;4.65;;
52512;SDS011;38422;53.172;6.974;2022-10-31T12:48:28;6.70;;;4.43;;
52512;SDS011;38422;53.172;6.974;2022-10-31T12:59:14;8.20;;;4.85;;
52512;SDS011;38422;53.172;6.974;2022-10-31T13:04:43;8.73;;;5.15;;
52512;SDS011;38422;53.172;6.974;2022-10-31T13:07:19;10.00;;;5.30;;
52512;SDS011;38422;53.172;6.974;2022-10-31T13:12:43;11.10;;;5.50;;
52512;SDS011;38422;53.172;6.974;2022-10-31T13:15:19;9.95;;;5.25;;
52512;SDS011;38422;53.172;6.974;2022-10-31T13:17:48;9.05;;;5.30;;
52512;SDS011;38422;53.172;6.974;2022-10-31T13:22:56;10.88;;;5.03;;
52512;SDS011;38422;53.172;6.974;2022-10-31T13:25:39;10.88;;;5.28;;
52512;SDS011;38422;53.172;6.974;2022-10-31T13:28:12;9.63;;;5.22;;
52512;SDS011;38422;53.172;6.974;2022-10-31T13:30:49;10.30;;;5.07;;
52512;SDS011;38422;53.172;6.974;2022-10-31T13:33:17;8.35;;;5.45;;
52512;SDS011;38422;53.172;6.974;2022-10-31T13:41:11;9.05;;;5.38;;
52512;SDS011;38422;53.172;6.974;2022-10-31T13:48:50;10.88;;;5.70;;
52512;SDS011;38422;53.172;6.974;2022-10-31T13:51:24;9.07;;;5.50;;
52512;SDS011;38422;53.172;6.974;2022-10-31T13:56:29;8.35;;;5.10;;
52512;SDS011;38422;53.172;6.974;2022-10-31T13:59:17;11.52;;;5.70;;
52512;SDS011;38422;53.172;6.974;2022-10-31T14:01:55;8.68;;;4.90;;
52512;SDS011;38422;53.172;6.974;2022-10-31T14:06:55;8.88;;;5.03;;
52512;SDS011;38422;53.172;6.974;2022-10-31T14:10:01;8.23;;;4.90;;
52512;SDS011;38422;53.172;6.974;2022-10-31T14:14:56;9.93;;;5.47;;
52512;SDS011;38422;53.172;6.974;2022-10-31T14:17:40;8.48;;;4.72;;
52512;SDS011;38422;53.172;6.974;2022-10-31T14:20:25;8.90;;;4.45;;
52512;SDS011;38422;53.172;6.974;2022-10-31T14:22:58;7.88;;;4.70;;
52512;SDS011;38422;53.172;6.974;2022-10-31T14:25:35;9.88;;;5.00;;
52512;SDS011;38422;53.172;6.974;2022-10-31T14:28:02;10.35;;;5.40;;
52512;SDS011;38422;53.172;6.974;2022-10-31T14:30:51;9.55;;;5.00;;
52512;SDS011;38422;53.172;6.974;2022-10-31T14:33:19;10.07;;;5.53;;
52512;SDS011;38422;53.172;6.974;2022-10-31T14:52:40;7.93;;;5.10;;
52512;SDS011;38422;53.172;6.974;2022-10-31T14:55:10;10.68;;;5.88;;
52512;SDS011;38422;53.172;6.974;2022-10-31T14:57:38;9.55;;;5.18;;
52512;SDS011;38422;53.172;6.974;2022-10-31T15:00:18;8.38;;;5.03;;
52512;SDS011;38422;53.172;6.974;2022-10-31T15:05:14;8.60;;;5.07;;
52512;SDS011;38422;53.172;6.974;2022-10-31T15:07:53;10.18;;;5.40;;
52512;SDS011;38422;53.172;6.974;2022-10-31T15:10:24;21.35;;;9.98;;
52512;SDS011;38422;53.172;6.974;2022-10-31T15:12:52;16.70;;;8.05;;
52512;SDS011;38422;53.172;6.974;2022-10-31T15:15:25;16.08;;;8.63;;
52512;SDS011;38422;53.172;6.974;2022-10-31T15:17:52;10.98;;;5.22;;
52512;SDS011;38422;53.172;6.974;2022-10-31T15:20:22;9.30;;;5.35;;
52512;SDS011;38422;53.172;6.974;2022-10-31T15:22:51;17.80;;;9.27;;
52512;SDS011;38422;53.172;6.974;2022-10-31T15:27:45;10.95;;;5.10;;
52512;SDS011;38422;53.172;6.974;2022-10-31T15:30:16;8.68;;;4.70;;
52512;SDS011;38422;53.172;6.974;2022-10-31T15:32:50;7.72;;;4.00;;
52512;SDS011;38422;53.172;6.974;2022-10-31T15:35:20;9.88;;;4.07;;
52512;SDS011;38422;53.172;6.974;2022-10-31T15:37:51;7.57;;;3.95;;
52512;SDS011;38422;53.172;6.974;2022-10-31T15:40:18;7.05;;;3.58;;
52512;SDS011;38422;53.172;6.974;2022-10-31T15:45:41;6.55;;;3.75;;
52512;SDS011;38422;53.172;6.974;2022-10-31T15:50:58;5.78;;;3.40;;
52512;SDS011;38422;53.172;6.974;2022-10-31T15:56:25;6.13;;;3.50;;
52512;SDS011;38422;53.172;6.974;2022-10-31T15:58:53;8.13;;;3.90;;
52512;SDS011;38422;53.172;6.974;2022-10-31T16:01:22;7.15;;;4.10;;
52512;SDS011;38422;53.172;6.974;2022-10-31T16:03:58;7.38;;;3.67;;
52512;SDS011;38422;53.172;6.974;2022-10-31T16:06:28;7.00;;;4.35;;
52512;SDS011;38422;53.172;6.974;2022-10-31T16:08:58;7.30;;;4.60;;
52512;SDS011;38422;53.172;6.974;2022-10-31T16:13:56;6.95;;;4.35;;
52512;SDS011;38422;53.172;6.974;2022-10-31T16:16:28;8.95;;;4.95;;
52512;SDS011;38422;53.172;6.974;2022-10-31T16:18:58;8.52;;;4.72;;
52512;SDS011;38422;53.172;6.974;2022-10-31T16:21:27;7.05;;;4.50;;
52512;SDS011;38422;53.172;6.974;2022-10-31T16:24:00;7.53;;;4.70;;
52512;SDS011;38422;53.172;6.974;2022-10-31T16:26:37;7.95;;;4.85;;
52512;SDS011;38422;53.172;6.974;2022-10-31T16:29:02;9.05;;;5.05;;
52512;SDS011;38422;53.172;6.974;2022-10-31T16:31:39;7.60;;;5.07;;
52512;SDS011;38422;53.172;6.974;2022-10-31T16:36:42;9.27;;;6.40;;
52512;SDS011;38422;53.172;6.974;2022-10-31T16:39:08;9.63;;;6.30;;
52512;SDS011;38422;53.172;6.974;2022-10-31T16:41:37;8.95;;;6.70;;
52512;SDS011;38422;53.172;6.974;2022-10-31T16:44:06;11.45;;;7.07;;
52512;SDS011;38422;53.172;6.974;2022-10-31T16:46:41;11.30;;;7.20;;
52512;SDS011;38422;53.172;6.974;2022-10-31T16:49:08;11.10;;;7.40;;
52512;SDS011;38422;53.172;6.974;2022-10-31T16:51:34;12.25;;;8.43;;
52512;SDS011;38422;53.172;6.974;2022-10-31T16:54:00;11.40;;;8.15;;
52512;SDS011;38422;53.172;6.974;2022-10-31T16:56:27;13.98;;;8.15;;
52512;SDS011;38422;53.172;6.974;2022-10-31T16:58:55;12.95;;;8.82;;
52512;SDS011;38422;53.172;6.974;2022-10-31T17:01:21;14.40;;;10.13;;
52512;SDS011;38422;53.172;6.974;2022-10-31T17:03:47;15.38;;;10.13;;
52512;SDS011;38422;53.172;6.974;2022-10-31T17:06:13;12.70;;;10.07;;
52512;SDS011;38422;53.172;6.974;2022-10-31T17:08:39;13.48;;;9.90;;
52512;SDS011;38422;53.172;6.974;2022-10-31T17:11:05;16.13;;;10.90;;
52512;SDS011;38422;53.172;6.974;2022-10-31T17:13:40;16.95;;;10.63;;
52512;SDS011;38422;53.172;6.974;2022-10-31T17:16:06;17.42;;;11.75;;
52512;SDS011;38422;53.172;6.974;2022-10-31T17:18:31;14.88;;;10.27;;
52512;SDS011;38422;53.172;6.974;2022-10-31T17:20:58;14.07;;;11.50;;
52512;SDS011;38422;53.172;6.974;2022-10-31T17:23:26;16.77;;;11.73;;
52512;SDS011;38422;53.172;6.974;2022-10-31T17:25:53;16.83;;;11.93;;
52512;SDS011;38422;53.172;6.974;2022-10-31T17:28:19;18.83;;;12.52;;
52512;SDS011;38422;53.172;6.974;2022-10-31T17:30:45;17.45;;;12.70;;
52512;SDS011;38422;53.172;6.974;2022-10-31T17:33:12;16.67;;;12.43;;
52512;SDS011;38422;53.172;6.974;2022-10-31T17:35:40;16.27;;;12.45;;
52512;SDS011;38422;53.172;6.974;2022-10-31T17:38:06;21.48;;;12.45;;
52512;SDS011;38422;53.172;6.974;2022-10-31T17:40:32;19.17;;;12.88;;
52512;SDS011;38422;53.172;6.974;2022-10-31T17:42:58;17.40;;;12.70;;
52512;SDS011;38422;53.172;6.974;2022-10-31T17:45:24;20.80;;;13.05;;
52512;SDS011;38422;53.172;6.974;2022-10-31T17:47:51;19.83;;;12.80;;
52512;SDS011;38422;53.172;6.974;2022-10-31T17:50:19;18.98;;;13.13;;
52512;SDS011;38422;53.172;6.974;2022-10-31T17:52:47;18.10;;;12.30;;
52512;SDS011;38422;53.172;6.974;2022-10-31T17:55:13;17.50;;;12.63;;